createdAt,value
2023-03-08T00:01:14.193Z,12.30
2023-03-08T00:03:41.617Z,12.20
2023-03-08T00:06:11.378Z,12.77
2023-03-08T00:08:38.437Z,12.00
2023-03-08T00:11:06.876Z,12.17
2023-03-08T00:13:34.078Z,12.10
2023-03-08T00:16:02.115Z,11.97
2023-03-08T00:18:29.170Z,12.57
2023-03-08T00:21:03.928Z,11.87
2023-03-08T00:23:31.122Z,12.30
2023-03-08T00:25:58.187Z,12.03
2023-03-08T00:28:25.207Z,12.90
2023-03-08T00:31:06.863Z,11.37
2023-03-08T00:33:34.643Z,13.13
2023-03-08T00:36:03.009Z,13.00
2023-03-08T00:38:31.907Z,12.63
2023-03-08T00:40:59.271Z,11.00
2023-03-08T00:43:27.023Z,13.10
2023-03-08T00:45:55.079Z,12.07
2023-03-08T00:48:22.821Z,11.13
2023-03-08T00:50:52.545Z,13.13
2023-03-08T00:53:19.738Z,9.93
2023-03-08T00:55:51.029Z,12.17
2023-03-08T00:58:17.802Z,10.87
2023-03-08T01:00:45.129Z,11.33
2023-03-08T01:03:12.444Z,11.73
2023-03-08T01:05:46.685Z,12.93
2023-03-08T01:08:14.165Z,9.93
2023-03-08T01:10:41.467Z,10.93
2023-03-08T01:13:09.417Z,10.40
2023-03-08T01:15:38.412Z,10.43
2023-03-08T01:18:06.177Z,9.97
2023-03-08T01:20:33.360Z,9.97
2023-03-08T01:23:00.211Z,9.77
2023-03-08T01:25:27.226Z,9.13
2023-03-08T01:27:54.279Z,8.60
2023-03-08T01:30:21.427Z,8.33
2023-03-08T01:32:48.540Z,8.27
2023-03-08T01:35:15.770Z,9.10
2023-03-08T01:37:42.391Z,8.30
2023-03-08T01:40:16.567Z,8.70
2023-03-08T01:42:43.599Z,8.07
2023-03-08T01:45:48.185Z,10.33
2023-03-08T01:48:16.162Z,9.17
2023-03-08T01:50:58.943Z,9.70
2023-03-08T01:53:25.785Z,10.20
2023-03-08T01:55:52.883Z,10.60
2023-03-08T01:58:19.955Z,10.10
2023-03-08T02:00:47.025Z,9.20
2023-03-08T02:03:14.429Z,10.27
2023-03-08T02:05:43.528Z,10.20
2023-03-08T02:08:16.745Z,8.80
2023-03-08T02:10:45.110Z,8.80
2023-03-08T02:13:12.361Z,8.87
2023-03-08T02:15:42.736Z,8.57
2023-03-08T02:18:09.452Z,9.17
2023-03-08T02:20:39.538Z,9.20
2023-03-08T02:23:14.611Z,9.60
2023-03-08T02:25:49.287Z,9.50
2023-03-08T02:28:16.381Z,9.17
2023-03-08T02:30:43.535Z,9.77
2023-03-08T02:33:10.193Z,9.93
2023-03-08T02:35:38.687Z,10.60
2023-03-08T02:38:05.781Z,10.07
2023-03-08T02:40:32.353Z,12.03
2023-03-08T02:42:59.430Z,11.20
2023-03-08T02:45:26.452Z,10.10
2023-03-08T02:47:53.523Z,11.50
2023-03-08T02:50:20.792Z,10.30
2023-03-08T02:52:47.799Z,9.93
2023-03-08T02:55:14.896Z,9.30
2023-03-08T02:57:42.296Z,11.10
2023-03-08T03:00:09.998Z,10.57
2023-03-08T03:02:37.157Z,9.33
2023-03-08T03:05:05.904Z,11.37
2023-03-08T03:07:35.935Z,10.50
2023-03-08T03:10:03.306Z,11.17
2023-03-08T03:12:30.960Z,11.30
2023-03-08T03:14:58.192Z,11.47
2023-03-08T03:17:25.214Z,11.67
2023-03-08T03:19:52.210Z,12.63
2023-03-08T03:22:18.785Z,12.20
2023-03-08T03:24:45.946Z,12.10
2023-03-08T03:27:12.718Z,12.80
2023-03-08T03:29:41.553Z,12.40
2023-03-08T03:32:14.898Z,11.60
2023-03-08T03:34:42.397Z,12.77
2023-03-08T03:37:09.892Z,12.23
2023-03-08T03:39:39.667Z,13.10
2023-03-08T03:42:09.518Z,11.93
2023-03-08T03:44:40.025Z,11.80
2023-03-08T03:47:09.919Z,11.63
2023-03-08T03:49:37.736Z,10.93
2023-03-08T03:52:04.585Z,11.77
2023-03-08T03:54:38.550Z,11.93
2023-03-08T03:57:05.686Z,10.43
2023-03-08T03:59:36.710Z,12.03
2023-03-08T04:02:03.969Z,11.57
2023-03-08T04:04:50.308Z,11.37
2023-03-08T04:07:20.024Z,12.23
2023-03-08T04:09:55.565Z,11.30
2023-03-08T04:12:22.599Z,11.60
2023-03-08T04:14:50.771Z,10.87
2023-03-08T04:17:18.478Z,13.30
2023-03-08T04:19:50.347Z,11.17
2023-03-08T04:22:18.443Z,12.33
2023-03-08T04:24:51.320Z,11.20
2023-03-08T04:27:24.500Z,12.80
2023-03-08T04:29:51.631Z,12.47
2023-03-08T04:32:18.875Z,12.23
2023-03-08T04:34:53.580Z,11.50
2023-03-08T04:37:23.637Z,11.07
2023-03-08T04:39:54.564Z,11.83
2023-03-08T04:42:21.839Z,11.37
2023-03-08T04:44:48.711Z,11.50
2023-03-08T04:47:19.867Z,12.20
2023-03-08T04:49:46.897Z,10.27
2023-03-08T04:52:13.507Z,12.50
2023-03-08T04:54:41.736Z,10.70
2023-03-08T04:57:16.896Z,12.47
2023-03-08T04:59:44.944Z,11.57
2023-03-08T05:02:13.287Z,11.13
2023-03-08T05:04:40.588Z,11.63
2023-03-08T05:07:07.651Z,11.27
2023-03-08T05:09:36.647Z,10.03
2023-03-08T05:12:03.850Z,12.70
2023-03-08T05:15:03.426Z,11.07
2023-03-08T05:17:30.155Z,11.50
2023-03-08T05:19:57.931Z,10.13
2023-03-08T05:22:32.105Z,10.67
2023-03-08T05:24:59.626Z,10.80
2023-03-08T05:27:27.884Z,10.30
2023-03-08T05:29:55.742Z,11.40
2023-03-08T05:32:22.849Z,10.83
2023-03-08T05:34:52.743Z,11.13
2023-03-08T05:37:27.575Z,12.60
2023-03-08T05:39:56.437Z,11.77
2023-03-08T05:42:23.970Z,11.80
2023-03-08T05:44:51.025Z,11.57
2023-03-08T05:47:23.132Z,10.33
2023-03-08T05:49:50.232Z,12.00
2023-03-08T05:52:18.753Z,11.07
2023-03-08T05:54:45.521Z,10.53
2023-03-08T05:57:16.461Z,10.60
2023-03-08T05:59:43.560Z,11.23
2023-03-08T06:02:13.798Z,11.23
2023-03-08T06:04:45.357Z,10.80
2023-03-08T06:07:14.170Z,12.00
2023-03-08T06:09:46.426Z,10.77
2023-03-08T06:12:15.988Z,11.07
2023-03-08T06:14:45.011Z,10.37
2023-03-08T06:17:14.310Z,12.63
2023-03-08T06:19:44.805Z,11.43
2023-03-08T06:22:12.335Z,11.67
2023-03-08T06:24:39.473Z,11.50
2023-03-08T06:27:08.431Z,12.07
2023-03-08T06:29:36.834Z,11.50
2023-03-08T06:32:04.315Z,10.53
2023-03-08T06:34:32.465Z,12.97
2023-03-08T06:37:00.156Z,12.20
2023-03-08T06:39:30.866Z,12.30
2023-03-08T06:42:01.226Z,11.33
2023-03-08T06:44:29.327Z,11.93
2023-03-08T06:46:56.527Z,11.23
2023-03-08T06:49:24.624Z,12.67
2023-03-08T06:51:51.674Z,11.00
2023-03-08T06:54:18.614Z,10.03
2023-03-08T06:56:47.047Z,11.80
2023-03-08T06:59:14.186Z,10.10
2023-03-08T07:01:41.246Z,10.87
2023-03-08T07:04:08.620Z,10.13
2023-03-08T07:06:35.775Z,10.57
2023-03-08T07:09:02.916Z,11.57
2023-03-08T07:11:31.250Z,10.67
2023-03-08T07:13:59.227Z,10.23
2023-03-08T07:16:26.331Z,10.00
2023-03-08T07:18:53.324Z,9.20
2023-03-08T07:21:20.435Z,9.10
2023-03-08T07:23:47.535Z,10.13
2023-03-08T07:26:14.587Z,10.07
2023-03-08T07:28:41.763Z,9.73
2023-03-08T07:31:12.003Z,8.87
2023-03-08T07:33:38.747Z,9.50
2023-03-08T07:36:05.851Z,9.33
2023-03-08T07:38:32.516Z,8.50
2023-03-08T07:40:59.561Z,8.97
2023-03-08T07:43:26.642Z,8.70
2023-03-08T07:46:05.628Z,8.53
2023-03-08T07:48:32.869Z,7.93
2023-03-08T07:51:07.120Z,8.40
2023-03-08T07:53:34.702Z,8.50
2023-03-08T07:56:01.479Z,9.03
2023-03-08T07:58:29.017Z,8.53
2023-03-08T08:00:56.293Z,8.77
2023-03-08T08:03:23.097Z,8.73
2023-03-08T08:05:50.163Z,8.40
2023-03-08T08:08:17.437Z,8.53
2023-03-08T08:10:44.108Z,7.67
2023-03-08T08:13:10.740Z,8.27
2023-03-08T08:15:37.505Z,8.73
2023-03-08T08:18:04.634Z,8.60
2023-03-08T08:20:31.304Z,8.60
2023-03-08T08:22:58.424Z,8.77
2023-03-08T08:25:25.457Z,7.90
2023-03-08T08:27:52.666Z,7.33
2023-03-08T08:30:19.499Z,7.87
2023-03-08T08:32:46.628Z,8.60
2023-03-08T08:35:13.789Z,8.70
2023-03-08T08:37:40.380Z,7.43
2023-03-08T08:40:11.330Z,8.03
2023-03-08T08:42:38.168Z,6.57
2023-03-08T08:45:05.598Z,7.33
2023-03-08T08:47:32.654Z,7.63
2023-03-08T08:49:59.787Z,7.30
2023-03-08T08:52:26.460Z,6.53
2023-03-08T08:54:53.852Z,5.83
2023-03-08T08:57:20.498Z,6.40
2023-03-08T08:59:47.727Z,6.00
2023-03-08T09:02:14.755Z,5.77
2023-03-08T09:04:41.957Z,5.67
2023-03-08T09:07:09.159Z,5.57
2023-03-08T09:09:36.220Z,5.07
2023-03-08T09:12:03.251Z,5.77
2023-03-08T09:14:30.304Z,5.30
2023-03-08T09:16:57.069Z,5.87
2023-03-08T09:19:24.290Z,5.73
2023-03-08T09:21:51.374Z,5.60
2023-03-08T09:24:18.480Z,5.07
2023-03-08T09:26:45.115Z,4.83
2023-03-08T09:29:12.280Z,4.70
2023-03-08T09:31:39.934Z,5.40
2023-03-08T09:34:09.027Z,4.73
2023-03-08T09:36:39.331Z,4.63
2023-03-08T09:39:08.720Z,4.50
2023-03-08T09:41:43.982Z,5.10
2023-03-08T09:44:20.253Z,5.17
2023-03-08T09:47:28.726Z,3.80
2023-03-08T09:50:04.221Z,3.67
2023-03-08T09:52:43.062Z,3.80
2023-03-08T09:55:20.592Z,3.53
2023-03-08T09:57:53.422Z,2.93
2023-03-08T10:00:24.744Z,3.43
2023-03-08T10:03:23.071Z,3.50
2023-03-08T10:06:01.117Z,2.90
2023-03-08T10:08:38.089Z,2.97
2023-03-08T10:11:13.587Z,3.70
2023-03-08T10:13:41.786Z,3.70
2023-03-08T10:16:24.451Z,3.40
2023-03-08T10:19:20.052Z,3.37
2023-03-08T10:21:47.559Z,3.13
2023-03-08T10:24:27.000Z,3.20
2023-03-08T10:27:23.736Z,2.63
2023-03-08T10:29:52.705Z,3.00
2023-03-08T10:32:20.270Z,3.10
2023-03-08T10:34:47.606Z,2.70
2023-03-08T10:37:15.059Z,3.30
2023-03-08T10:39:54.700Z,2.50
2023-03-08T10:42:25.599Z,2.10
2023-03-08T10:44:54.277Z,2.10
2023-03-08T10:47:32.885Z,2.60
2023-03-08T10:50:06.928Z,2.33
2023-03-08T10:52:34.048Z,2.80
2023-03-08T10:55:04.568Z,2.33
2023-03-08T10:57:32.725Z,1.93
2023-03-08T11:00:29.425Z,2.00
2023-03-08T11:03:24.159Z,2.00
2023-03-08T11:05:52.194Z,2.00
2023-03-08T11:08:23.310Z,2.10
2023-03-08T11:11:00.683Z,1.57
2023-03-08T11:13:35.287Z,1.50
2023-03-08T11:16:22.522Z,1.53
2023-03-08T11:18:58.590Z,1.50
2023-03-08T11:21:53.365Z,2.33
2023-03-08T11:25:04.327Z,1.73
2023-03-08T11:27:55.804Z,1.77
2023-03-08T11:30:28.446Z,1.43
2023-03-08T11:33:26.188Z,2.20
2023-03-08T11:36:23.796Z,1.80
2023-03-08T11:38:59.477Z,1.40
2023-03-08T11:41:34.921Z,1.53
2023-03-08T11:44:22.163Z,1.17
2023-03-08T11:46:54.326Z,1.20
2023-03-08T11:49:48.484Z,0.90
2023-03-08T11:52:38.355Z,1.83
2023-03-08T11:55:30.981Z,1.60
2023-03-08T11:58:40.147Z,1.43
2023-03-08T12:01:16.047Z,1.67
2023-03-08T12:03:52.550Z,1.40
2023-03-08T12:06:38.122Z,1.00
2023-03-08T12:09:07.909Z,0.90
2023-03-08T12:11:51.788Z,1.47
2023-03-08T12:14:26.175Z,1.27
2023-03-08T12:17:02.603Z,1.00
2023-03-08T12:19:40.452Z,0.60
2023-03-08T12:22:45.934Z,0.90
2023-03-08T12:25:13.055Z,0.97
2023-03-08T12:28:20.927Z,0.97
2023-03-08T12:31:26.558Z,1.20
2023-03-08T12:33:56.055Z,1.13
2023-03-08T12:36:23.479Z,1.27
2023-03-08T12:38:56.462Z,1.83
2023-03-08T12:41:30.864Z,1.60
2023-03-08T12:44:05.947Z,1.90
2023-03-08T12:47:04.204Z,1.93
2023-03-08T12:49:37.245Z,1.77
2023-03-08T12:52:07.650Z,1.77
2023-03-08T12:54:35.516Z,1.83
2023-03-08T12:57:14.182Z,1.67
2023-03-08T12:59:41.384Z,1.70
2023-03-08T13:02:17.118Z,2.00
2023-03-08T13:04:44.213Z,2.50
2023-03-08T13:07:47.044Z,1.73
2023-03-08T13:10:27.378Z,2.10
2023-03-08T13:13:09.392Z,2.00
2023-03-08T13:15:37.661Z,1.83
2023-03-08T13:18:15.586Z,1.90
2023-03-08T13:21:03.621Z,1.80
2023-03-08T13:23:37.230Z,2.50
2023-03-08T13:26:12.685Z,2.20
2023-03-08T13:28:47.689Z,2.00
2023-03-08T13:31:21.063Z,2.20
2023-03-08T13:33:53.506Z,2.23
2023-03-08T13:36:29.391Z,2.33
2023-03-08T13:39:00.992Z,2.00
2023-03-08T13:41:38.689Z,1.83
2023-03-08T13:44:16.509Z,2.00
2023-03-08T13:46:44.585Z,2.03
2023-03-08T13:49:37.067Z,2.57
2023-03-08T13:52:12.257Z,2.00
2023-03-08T13:54:45.171Z,1.93
2023-03-08T13:57:34.080Z,2.50
2023-03-08T14:00:04.449Z,1.97
2023-03-08T14:02:32.310Z,2.97
2023-03-08T14:04:59.572Z,3.97
2023-03-08T14:07:29.685Z,2.80
2023-03-08T14:09:57.177Z,2.00
2023-03-08T14:12:32.566Z,2.10
2023-03-08T14:15:02.724Z,1.87
2023-03-08T14:17:31.910Z,1.67
2023-03-08T14:20:07.099Z,1.53
2023-03-08T14:22:39.989Z,2.00
2023-03-08T14:25:22.321Z,1.70
2023-03-08T14:27:49.650Z,2.20
2023-03-08T14:30:34.293Z,2.10
2023-03-08T14:33:21.998Z,1.90
2023-03-08T14:35:58.533Z,2.77
2023-03-08T14:38:26.925Z,2.40
2023-03-08T14:40:54.562Z,2.27
2023-03-08T14:43:24.245Z,2.33
2023-03-08T14:45:59.357Z,2.00
2023-03-08T14:48:33.666Z,2.40
2023-03-08T14:51:17.029Z,3.33
2023-03-08T14:53:43.695Z,2.47
2023-03-08T14:56:16.232Z,2.37
2023-03-08T14:58:49.093Z,2.77
2023-03-08T15:01:27.172Z,2.90
2023-03-08T15:03:54.309Z,2.93
2023-03-08T15:06:27.182Z,2.33
2023-03-08T15:08:54.374Z,2.20
2023-03-08T15:11:21.228Z,2.30
2023-03-08T15:13:48.272Z,2.50
2023-03-08T15:16:16.404Z,2.43
2023-03-08T15:18:43.495Z,2.77
2023-03-08T15:21:15.148Z,2.20
2023-03-08T15:23:43.311Z,2.47
2023-03-08T15:26:18.252Z,3.10
2023-03-08T15:28:45.270Z,2.47
2023-03-08T15:31:12.362Z,2.50
2023-03-08T15:33:39.383Z,2.97
2023-03-08T15:36:08.795Z,3.80
2023-03-08T15:38:35.435Z,3.93
2023-03-08T15:41:04.891Z,4.60
2023-03-08T15:43:33.242Z,4.60
2023-03-08T15:46:00.275Z,3.30
2023-03-08T15:48:27.345Z,2.70
2023-03-08T15:50:56.830Z,3.03
2023-03-08T15:53:34.959Z,2.90
2023-03-08T15:56:03.006Z,2.60
2023-03-08T15:58:30.049Z,3.03
2023-03-08T16:00:57.195Z,3.20
2023-03-08T16:03:30.846Z,3.80
2023-03-08T16:05:58.537Z,3.13
2023-03-08T16:08:28.889Z,3.10
2023-03-08T16:10:55.564Z,2.70
2023-03-08T16:13:22.615Z,2.57
2023-03-08T16:15:49.831Z,2.53
2023-03-08T16:18:16.840Z,2.83
2023-03-08T16:20:46.000Z,2.97
2023-03-08T16:23:13.114Z,2.93
2023-03-08T16:25:43.079Z,2.97
2023-03-08T16:28:10.527Z,2.80
2023-03-08T16:30:39.148Z,2.90
2023-03-08T16:33:06.285Z,2.53
2023-03-08T16:35:33.344Z,2.80
2023-03-08T16:38:00.549Z,2.97
2023-03-08T16:40:31.076Z,3.10
2023-03-08T16:42:58.121Z,3.13
2023-03-08T16:45:25.191Z,3.37
2023-03-08T16:47:51.814Z,3.60
2023-03-08T16:50:18.897Z,3.40
2023-03-08T16:52:46.463Z,3.27
2023-03-08T16:55:13.660Z,3.43
2023-03-08T16:57:40.763Z,3.60
2023-03-08T17:00:11.910Z,3.47
2023-03-08T17:02:39.205Z,3.10
2023-03-08T17:05:06.456Z,3.30
2023-03-08T17:07:33.517Z,2.87
2023-03-08T17:10:00.497Z,3.37
2023-03-08T17:12:27.559Z,3.70
2023-03-08T17:14:54.590Z,2.50
2023-03-08T17:17:21.625Z,2.60
2023-03-08T17:19:52.006Z,2.40
2023-03-08T17:22:18.725Z,2.40
2023-03-08T17:24:45.754Z,2.43
2023-03-08T17:27:12.788Z,2.77
2023-03-08T17:29:39.388Z,2.20
2023-03-08T17:32:06.331Z,2.20
2023-03-08T17:34:33.374Z,2.50
2023-03-08T17:37:00.385Z,2.40
2023-03-08T17:39:27.413Z,2.83
2023-03-08T17:41:54.434Z,2.27
2023-03-08T17:44:21.493Z,3.30
2023-03-08T17:46:48.610Z,2.87
2023-03-08T17:49:22.935Z,2.67
2023-03-08T17:51:50.814Z,2.77
2023-03-08T17:54:18.206Z,3.27
2023-03-08T17:56:45.522Z,2.73
2023-03-08T17:59:16.988Z,3.13
2023-03-08T18:01:44.068Z,3.43
2023-03-08T18:04:11.249Z,2.73
2023-03-08T18:06:42.569Z,2.87
2023-03-08T18:09:12.483Z,2.60
2023-03-08T18:11:39.710Z,2.77
2023-03-08T18:14:08.679Z,3.07
2023-03-08T18:16:36.112Z,2.83
2023-03-08T18:19:03.772Z,3.03
2023-03-08T18:21:32.730Z,2.77
2023-03-08T18:23:59.905Z,2.83
2023-03-08T18:26:26.980Z,2.33
2023-03-08T18:28:54.029Z,2.83
2023-03-08T18:31:25.819Z,2.47
2023-03-08T18:33:54.704Z,2.83
2023-03-08T18:36:22.350Z,3.23
2023-03-08T18:38:49.527Z,2.83
2023-03-08T18:41:20.600Z,2.23
2023-03-08T18:43:47.201Z,3.63
2023-03-08T18:46:14.631Z,3.07
2023-03-08T18:48:42.145Z,3.57
2023-03-08T18:51:09.424Z,3.00
2023-03-08T18:53:37.138Z,3.00
2023-03-08T18:56:04.697Z,3.30
2023-03-08T18:58:32.014Z,3.47
2023-03-08T19:01:00.390Z,2.47
2023-03-08T19:03:28.341Z,3.13
2023-03-08T19:05:55.777Z,2.97
2023-03-08T19:08:22.755Z,2.93
2023-03-08T19:10:49.786Z,2.83
2023-03-08T19:13:16.451Z,3.13
2023-03-08T19:15:43.556Z,3.17
2023-03-08T19:18:10.740Z,3.37
2023-03-08T19:20:39.332Z,3.50
2023-03-08T19:23:06.644Z,3.47
2023-03-08T19:25:34.865Z,3.43
2023-03-08T19:28:02.387Z,3.13
2023-03-08T19:30:29.545Z,3.80
2023-03-08T19:32:56.972Z,3.97
2023-03-08T19:35:24.077Z,3.90
2023-03-08T19:37:51.169Z,3.80
2023-03-08T19:40:18.401Z,3.13
2023-03-08T19:42:45.524Z,3.07
2023-03-08T19:45:12.460Z,3.43
2023-03-08T19:47:39.531Z,3.20
2023-03-08T19:50:06.755Z,2.80
2023-03-08T19:52:33.411Z,3.83
2023-03-08T19:55:01.886Z,3.80
2023-03-08T19:57:28.969Z,6.57
2023-03-08T19:59:57.738Z,4.93
2023-03-08T20:02:24.886Z,4.87
2023-03-08T20:04:51.919Z,4.07
2023-03-08T20:07:19.057Z,3.90
2023-03-08T20:09:45.736Z,4.37
2023-03-08T20:12:12.858Z,3.40
2023-03-08T20:14:39.902Z,3.83
2023-03-08T20:17:06.952Z,4.23
2023-03-08T20:19:34.167Z,3.83
2023-03-08T20:22:01.501Z,4.00
2023-03-08T20:24:28.782Z,4.40
2023-03-08T20:26:55.868Z,4.20
2023-03-08T20:29:23.015Z,4.30
2023-03-08T20:31:50.157Z,4.10
2023-03-08T20:34:17.488Z,4.10
2023-03-08T20:36:44.344Z,3.97
2023-03-08T20:39:11.408Z,4.80
2023-03-08T20:41:38.104Z,3.93
2023-03-08T20:44:04.942Z,4.63
2023-03-08T20:46:33.707Z,4.30
2023-03-08T20:49:01.149Z,4.50
2023-03-08T20:51:28.656Z,4.27
2023-03-08T20:53:56.029Z,3.90
2023-03-08T20:56:24.572Z,4.40
2023-03-08T20:58:54.421Z,5.00
2023-03-08T21:01:27.796Z,4.40
2023-03-08T21:03:55.001Z,4.27
2023-03-08T21:06:27.383Z,4.23
2023-03-08T21:08:54.577Z,4.97
2023-03-08T21:11:22.141Z,4.73
2023-03-08T21:13:50.594Z,4.87
2023-03-08T21:16:18.999Z,5.00
2023-03-08T21:18:51.207Z,4.70
2023-03-08T21:21:19.694Z,5.27
2023-03-08T21:23:46.333Z,4.97
2023-03-08T21:26:14.250Z,5.03
2023-03-08T21:28:41.343Z,4.87
2023-03-08T21:31:10.356Z,5.30
2023-03-08T21:33:37.482Z,4.93
2023-03-08T21:36:04.737Z,4.70
2023-03-08T21:38:32.074Z,5.10
2023-03-08T21:40:59.326Z,5.60
2023-03-08T21:43:26.419Z,4.90
2023-03-08T21:45:53.589Z,4.97
2023-03-08T21:48:20.832Z,5.17
2023-03-08T21:50:47.531Z,5.20
2023-03-08T21:53:14.625Z,5.23
2023-03-08T21:55:41.758Z,5.17
2023-03-08T21:58:09.051Z,5.03
2023-03-08T22:00:36.124Z,5.43
2023-03-08T22:03:03.289Z,6.40
2023-03-08T22:05:30.544Z,5.40
2023-03-08T22:07:57.622Z,5.60
2023-03-08T22:10:24.296Z,5.80
2023-03-08T22:12:50.874Z,5.83
2023-03-08T22:15:17.671Z,5.70
2023-03-08T22:17:44.740Z,5.87
2023-03-08T22:20:12.371Z,5.83
2023-03-08T22:22:40.260Z,5.37
2023-03-08T22:25:08.050Z,5.53
2023-03-08T22:27:35.380Z,4.83
2023-03-08T22:30:02.452Z,6.07
2023-03-08T22:32:29.555Z,5.27
2023-03-08T22:34:57.084Z,5.37
2023-03-08T22:37:23.732Z,5.10
2023-03-08T22:39:50.323Z,5.53
2023-03-08T22:42:17.361Z,5.60
2023-03-08T22:44:44.405Z,5.07
2023-03-08T22:47:11.503Z,6.10
2023-03-08T22:49:38.185Z,5.43
2023-03-08T22:52:07.008Z,5.60
2023-03-08T22:54:34.046Z,5.50
2023-03-08T22:57:00.701Z,5.80
2023-03-08T22:59:27.799Z,5.97
2023-03-08T23:01:54.897Z,5.87
2023-03-08T23:04:21.750Z,6.20
2023-03-08T23:06:48.861Z,5.00
2023-03-08T23:09:17.000Z,6.20
2023-03-08T23:11:44.359Z,6.07
2023-03-08T23:14:12.053Z,5.37
2023-03-08T23:16:42.029Z,5.17
2023-03-08T23:19:15.965Z,4.93
2023-03-08T23:21:44.461Z,5.07
2023-03-08T23:24:11.997Z,5.30
2023-03-08T23:26:39.034Z,4.77
2023-03-08T23:29:06.373Z,5.57
2023-03-08T23:31:35.940Z,5.40
2023-03-08T23:34:04.918Z,4.73
2023-03-08T23:36:33.245Z,5.40
2023-03-08T23:39:03.821Z,5.17
2023-03-08T23:41:31.766Z,5.13
2023-03-08T23:44:00.454Z,4.53
2023-03-08T23:46:27.558Z,5.30
2023-03-08T23:48:56.396Z,5.00
2023-03-08T23:51:24.229Z,5.87
2023-03-08T23:53:53.042Z,5.40
2023-03-08T23:56:26.482Z,6.37
2023-03-08T23:58:57.972Z,5.33
